createdAt,value
2023-03-30T00:00:46.442Z,99864.48
2023-03-30T00:01:48.636Z,99857.41
2023-03-30T00:02:51.046Z,99857.09
2023-03-30T00:03:53.828Z,99852.01
2023-03-30T00:04:57.368Z,99856.00
2023-03-30T00:06:02.908Z,99861.20
2023-03-30T00:07:04.893Z,99865.19
2023-03-30T00:08:06.843Z,99853.06
2023-03-30T00:09:08.720Z,99856.28
2023-03-30T00:10:12.352Z,99857.50
2023-03-30T00:11:15.365Z,99859.50
2023-03-30T00:12:17.348Z,99852.10
2023-03-30T00:13:19.324Z,99853.32
2023-03-30T00:14:21.813Z,99849.02
2023-03-30T00:15:23.791Z,99856.98
2023-03-30T00:16:26.294Z,99854.22
2023-03-30T00:17:28.544Z,99854.67
2023-03-30T00:18:30.559Z,99862.96
2023-03-30T00:19:33.009Z,99864.19
2023-03-30T00:20:35.113Z,99855.89
2023-03-30T00:21:37.524Z,99858.66
2023-03-30T00:22:44.002Z,99849.59
2023-03-30T00:23:46.016Z,99855.89
2023-03-30T00:24:48.605Z,99862.96
2023-03-30T00:25:50.865Z,99856.66
2023-03-30T00:26:52.828Z,99857.11
2023-03-30T00:27:54.704Z,99863.86
2023-03-30T00:28:58.236Z,99848.49
2023-03-30T00:30:00.251Z,99865.08
2023-03-30T00:31:02.847Z,99856.78
2023-03-30T00:32:05.628Z,99860.77
2023-03-30T00:33:07.773Z,99856.17
2023-03-30T00:34:11.711Z,99853.09
2023-03-30T00:35:13.963Z,99856.63
2023-03-30T00:36:17.124Z,99853.86
2023-03-30T00:37:19.699Z,99853.86
2023-03-30T00:38:22.216Z,99859.38
2023-03-30T00:39:24.170Z,99853.09
2023-03-30T00:40:26.050Z,99854.63
2023-03-30T00:41:27.947Z,99856.63
2023-03-30T00:42:29.998Z,99855.08
2023-03-30T00:43:32.247Z,99860.28
2023-03-30T00:45:06.919Z,99856.75
2023-03-30T00:46:09.624Z,99857.19
2023-03-30T00:47:11.748Z,99851.34
2023-03-30T00:48:21.985Z,99855.00
2023-03-30T00:49:24.953Z,99862.52
2023-03-30T00:51:46.679Z,99859.38
2023-03-30T00:52:49.759Z,99856.99
2023-03-30T00:53:54.072Z,99853.01
2023-03-30T00:54:58.236Z,99854.55
2023-03-30T00:56:01.503Z,99856.87
2023-03-30T00:57:04.035Z,99856.42
2023-03-30T00:58:06.834Z,99861.95
2023-03-30T00:59:08.759Z,99862.27
2023-03-30T01:00:12.353Z,99855.97
2023-03-30T01:01:15.716Z,99857.52
2023-03-30T01:04:52.383Z,99861.74
2023-03-30T01:05:54.924Z,99867.67
2023-03-30T01:06:57.401Z,99868.45
2023-03-30T01:07:59.346Z,99871.98
2023-03-30T01:09:02.457Z,99871.21
2023-03-30T01:10:06.852Z,99876.29
2023-03-30T01:11:08.972Z,99877.52
2023-03-30T01:12:10.926Z,99878.28
2023-03-30T01:13:13.508Z,99883.81
2023-03-30T01:14:16.066Z,99874.30
2023-03-30T01:15:18.030Z,99875.84
2023-03-30T01:16:51.229Z,99876.62
2023-03-30T01:18:19.800Z,99878.61
2023-03-30T01:21:31.223Z,99876.21
2023-03-30T01:22:56.984Z,99879.37
2023-03-30T01:24:28.385Z,99877.06
2023-03-30T01:25:58.697Z,99877.52
2023-03-30T01:27:10.209Z,99882.27
2023-03-30T01:28:30.930Z,99880.73
2023-03-30T01:29:48.939Z,99884.27
2023-03-30T01:31:12.255Z,99887.47
2023-03-30T01:32:39.482Z,99894.99
2023-03-30T01:33:57.667Z,99890.36
2023-03-30T01:35:20.744Z,99898.65
2023-03-30T01:36:47.748Z,99893.57
2023-03-30T01:38:02.874Z,99891.25
2023-03-30T01:40:47.584Z,99894.42
2023-03-30T01:42:08.825Z,99896.01
2023-03-30T01:44:51.272Z,99896.70
2023-03-30T01:47:29.130Z,99909.02
2023-03-30T01:48:41.217Z,99901.09
2023-03-30T01:49:56.777Z,99907.06
2023-03-30T01:51:06.031Z,99903.08
2023-03-30T01:52:31.815Z,99905.84
2023-03-30T01:53:44.054Z,99899.88
2023-03-30T01:54:57.766Z,99907.06
2023-03-30T01:56:09.593Z,99910.27
2023-03-30T01:58:30.355Z,99917.10
2023-03-30T02:00:59.031Z,99915.23
2023-03-30T02:02:01.887Z,99912.53
2023-03-30T02:03:09.130Z,99914.52
2023-03-30T02:04:11.311Z,99918.06
2023-03-30T02:05:14.108Z,99918.06
2023-03-30T02:06:37.773Z,99916.84
2023-03-30T02:07:39.922Z,99920.38
2023-03-30T02:08:41.854Z,99913.30
2023-03-30T02:09:44.714Z,99916.07
2023-03-30T02:10:47.376Z,99916.07
2023-03-30T02:11:50.531Z,99917.29
2023-03-30T02:12:52.566Z,99918.06
2023-03-30T02:13:54.506Z,99922.37
2023-03-30T02:16:16.178Z,99925.07
2023-03-30T02:17:21.719Z,99926.67
2023-03-30T02:18:23.783Z,99929.44
2023-03-30T02:19:25.770Z,99932.98
2023-03-30T02:20:29.281Z,99938.50
2023-03-30T02:21:32.487Z,99930.22
2023-03-30T02:22:34.491Z,99937.73
2023-03-30T02:23:38.961Z,99934.97
2023-03-30T02:24:42.538Z,99936.19
2023-03-30T02:25:45.224Z,99934.64
2023-03-30T02:26:48.483Z,99932.65
2023-03-30T02:27:50.461Z,99933.09
2023-03-30T02:28:52.426Z,99938.17
2023-03-30T02:29:55.773Z,99932.32
2023-03-30T02:30:57.851Z,99935.86
2023-03-30T02:32:01.915Z,99941.38
2023-03-30T02:33:05.571Z,99939.84
2023-03-30T02:34:23.524Z,99945.37
2023-03-30T02:35:41.636Z,99942.60
2023-03-30T02:37:08.393Z,99943.82
2023-03-30T02:38:29.091Z,99940.28
2023-03-30T02:39:51.940Z,99941.06
2023-03-30T02:41:09.728Z,99939.84
2023-03-30T02:42:43.863Z,99935.53
2023-03-30T02:44:09.509Z,99934.76
2023-03-30T02:45:32.505Z,99930.89
2023-03-30T02:46:54.869Z,99938.86
2023-03-30T02:49:21.938Z,99935.09
2023-03-30T02:50:47.957Z,99936.66
2023-03-30T02:52:24.603Z,99933.56
2023-03-30T02:54:54.068Z,99940.84
2023-03-30T02:56:17.471Z,99945.20
2023-03-30T02:59:09.440Z,99942.95
2023-03-30T03:00:32.656Z,99947.30
2023-03-30T03:01:38.667Z,99944.98
2023-03-30T03:04:01.374Z,99952.27
2023-03-30T03:06:12.715Z,99954.48
2023-03-30T03:07:18.019Z,99962.66
2023-03-30T03:08:27.859Z,99962.55
2023-03-30T03:09:29.938Z,99971.02
2023-03-30T03:10:33.620Z,99968.48
2023-03-30T03:11:36.450Z,99966.38
2023-03-30T03:12:39.509Z,99969.02
2023-03-30T03:13:41.672Z,99968.43
2023-03-30T03:14:43.893Z,99976.60
2023-03-30T03:15:46.984Z,99982.78
2023-03-30T03:16:49.031Z,99973.61
2023-03-30T03:17:51.839Z,99975.48
2023-03-30T03:18:54.013Z,99975.80
2023-03-30T03:19:56.062Z,99975.36
2023-03-30T03:20:58.473Z,99984.87
2023-03-30T03:22:01.720Z,99979.78
2023-03-30T03:23:05.552Z,99981.45
2023-03-30T03:24:09.557Z,99986.20
2023-03-30T03:25:22.298Z,99983.89
2023-03-30T03:26:26.188Z,99978.48
2023-03-30T03:27:30.698Z,99986.77
2023-03-30T03:30:06.199Z,99970.06
2023-03-30T03:31:10.692Z,99978.41
2023-03-30T03:32:15.781Z,99984.38
2023-03-30T03:33:20.028Z,99983.28
2023-03-30T03:34:24.087Z,99983.72
2023-03-30T03:35:31.186Z,99986.93
2023-03-30T03:36:34.204Z,99992.13
2023-03-30T03:37:37.582Z,99994.89
2023-03-30T03:38:40.144Z,99993.34
2023-03-30T03:39:42.173Z,99987.81
2023-03-30T03:40:48.859Z,99991.80
2023-03-30T03:41:50.885Z,99996.55
2023-03-30T03:42:52.958Z,99993.78
2023-03-30T03:43:55.322Z,99993.78
2023-03-30T03:44:58.217Z,99986.72
2023-03-30T03:46:00.443Z,99993.45
2023-03-30T03:47:02.938Z,99987.16
2023-03-30T03:48:06.057Z,99987.16
2023-03-30T03:49:19.164Z,99983.62
2023-03-30T03:50:21.315Z,99986.83
2023-03-30T03:51:23.691Z,99986.05
2023-03-30T03:52:26.148Z,99986.05
2023-03-30T03:53:28.668Z,99989.59
2023-03-30T03:54:33.565Z,99994.34
2023-03-30T03:55:35.766Z,99986.05
2023-03-30T03:56:38.465Z,99990.03
2023-03-30T03:57:40.537Z,99988.52
2023-03-30T03:58:43.113Z,99997.58
2023-03-30T03:59:45.077Z,99994.81
2023-03-30T04:00:48.854Z,99993.27
2023-03-30T04:01:51.420Z,99990.95
2023-03-30T04:02:53.455Z,99992.94
2023-03-30T04:03:55.323Z,99992.49
2023-03-30T04:04:57.282Z,99991.72
2023-03-30T04:06:00.500Z,99991.72
2023-03-30T04:07:02.574Z,99988.52
2023-03-30T04:08:05.742Z,99987.74
2023-03-30T04:09:07.765Z,99988.52
2023-03-30T04:10:15.465Z,99994.04
2023-03-30T04:11:22.367Z,99995.55
2023-03-30T04:12:43.392Z,99989.29
2023-03-30T04:13:47.865Z,99998.32
2023-03-30T04:14:55.285Z,100001.08
2023-03-30T04:16:15.969Z,99991.28
2023-03-30T04:17:29.090Z,99992.05
2023-03-30T04:18:31.232Z,100001.08
2023-03-30T04:19:35.114Z,99995.55
2023-03-30T04:20:53.886Z,100004.62
2023-03-30T04:23:18.832Z,100001.52
2023-03-30T04:24:22.723Z,100000.64
2023-03-30T04:25:24.777Z,99996.66
2023-03-30T04:26:33.093Z,99993.90
2023-03-30T04:27:43.336Z,99996.22
2023-03-30T04:28:47.736Z,100001.30
2023-03-30T04:31:22.307Z,99998.97
2023-03-30T04:32:43.814Z,100005.61
2023-03-30T04:33:52.220Z,100012.69
2023-03-30T04:34:56.651Z,100007.93
2023-03-30T04:35:58.731Z,100012.23
2023-03-30T04:38:26.809Z,100007.33
2023-03-30T04:40:46.149Z,100006.60
2023-03-30T04:42:06.814Z,100015.76
2023-03-30T04:43:14.267Z,100015.38
2023-03-30T04:44:20.749Z,100015.41
2023-03-30T04:46:45.967Z,100013.95
2023-03-30T04:48:01.994Z,100012.75
2023-03-30T04:49:22.936Z,100004.59
2023-03-30T04:50:40.211Z,100005.02
2023-03-30T04:51:44.618Z,100005.72
2023-03-30T04:52:51.115Z,99997.61
2023-03-30T04:55:17.168Z,100007.52
2023-03-30T04:56:33.755Z,100010.52
2023-03-30T04:57:38.074Z,100009.75
2023-03-30T05:01:26.146Z,100010.35
2023-03-30T05:02:37.352Z,100017.91
2023-03-30T05:03:48.578Z,100014.20
2023-03-30T05:04:52.788Z,100021.83
2023-03-30T05:05:59.427Z,100021.02
2023-03-30T05:08:18.311Z,100012.34
2023-03-30T05:09:34.267Z,100017.16
2023-03-30T05:10:48.856Z,100015.23
2023-03-30T05:13:12.213Z,100019.71
2023-03-30T05:14:18.117Z,100023.00
2023-03-30T05:15:37.094Z,100026.34
2023-03-30T05:16:47.460Z,100015.44
2023-03-30T05:18:01.847Z,100013.69
2023-03-30T05:19:19.488Z,100017.27
2023-03-30T05:20:29.606Z,100023.20
2023-03-30T05:21:39.426Z,100025.00
2023-03-30T05:22:52.021Z,100014.37
2023-03-30T05:24:14.528Z,100013.33
2023-03-30T05:25:30.129Z,100016.56
2023-03-30T05:26:37.922Z,100016.48
2023-03-30T05:27:42.023Z,100024.75
2023-03-30T05:28:47.021Z,100021.06
2023-03-30T05:29:51.017Z,100021.45
2023-03-30T05:31:01.014Z,100015.45
2023-03-30T05:32:10.767Z,100016.31
2023-03-30T05:33:21.774Z,100011.59
2023-03-30T05:34:42.135Z,100014.95
2023-03-30T05:35:49.452Z,100011.44
2023-03-30T05:36:59.891Z,100008.22
2023-03-30T05:38:13.154Z,100018.92
2023-03-30T05:39:33.322Z,100016.15
2023-03-30T05:40:37.374Z,100018.20
2023-03-30T05:41:58.753Z,100012.47
2023-03-30T05:43:15.329Z,100015.76
2023-03-30T05:44:36.591Z,100014.02
2023-03-30T05:45:47.703Z,100012.77
2023-03-30T05:48:13.560Z,100019.59
2023-03-30T05:49:23.321Z,100020.70
2023-03-30T05:50:27.518Z,100019.20
2023-03-30T05:51:31.353Z,100017.57
2023-03-30T05:52:38.261Z,100014.37
2023-03-30T05:53:43.183Z,100018.48
2023-03-30T05:56:11.265Z,100014.03
2023-03-30T05:57:15.255Z,100022.03
2023-03-30T05:58:28.532Z,100016.03
2023-03-30T05:59:32.964Z,100018.41
2023-03-30T06:00:39.929Z,100024.31
2023-03-30T06:01:43.809Z,100015.06
2023-03-30T06:02:45.795Z,100028.09
2023-03-30T06:03:50.085Z,100025.17
2023-03-30T06:04:53.418Z,100023.80
2023-03-30T06:05:56.494Z,100023.69
2023-03-30T06:06:59.577Z,100025.09
2023-03-30T06:08:01.556Z,100032.81
2023-03-30T06:09:04.757Z,100025.11
2023-03-30T06:10:09.421Z,100026.50
2023-03-30T06:11:12.356Z,100020.84
2023-03-30T06:12:16.237Z,100025.78
2023-03-30T06:13:18.499Z,100027.94
2023-03-30T06:14:22.313Z,100020.54
2023-03-30T06:15:26.627Z,100027.02
2023-03-30T06:16:39.555Z,100027.19
2023-03-30T06:17:42.206Z,100026.10
2023-03-30T06:18:44.518Z,100029.81
2023-03-30T06:19:48.424Z,100023.17
2023-03-30T06:20:50.706Z,100025.64
2023-03-30T06:21:53.066Z,100025.34
2023-03-30T06:23:03.006Z,100019.48
2023-03-30T06:24:06.085Z,100026.76
2023-03-30T06:25:09.787Z,100025.67
2023-03-30T06:26:12.479Z,100027.37
2023-03-30T06:27:15.020Z,100029.07
2023-03-30T06:28:17.206Z,100018.12
2023-03-30T06:29:19.748Z,100026.14
2023-03-30T06:30:22.277Z,100027.06
2023-03-30T06:31:26.805Z,100015.69
2023-03-30T06:32:33.680Z,100022.47
2023-03-30T06:33:38.984Z,100024.63
2023-03-30T06:34:43.350Z,100023.08
2023-03-30T06:36:58.228Z,100024.75
2023-03-30T06:38:00.919Z,100026.47
2023-03-30T06:39:06.306Z,100024.61
2023-03-30T06:40:09.834Z,100019.06
2023-03-30T06:41:12.020Z,100025.84
2023-03-30T06:42:15.888Z,100018.75
2023-03-30T06:43:35.604Z,100018.75
2023-03-30T06:44:46.627Z,100022.76
2023-03-30T06:45:55.293Z,100025.25
2023-03-30T06:46:57.418Z,100017.39
2023-03-30T06:47:59.484Z,100033.73
2023-03-30T06:49:02.295Z,100027.86
2023-03-30T06:50:19.299Z,100022.78
2023-03-30T06:51:21.843Z,100026.02
2023-03-30T06:52:24.723Z,100025.70
2023-03-30T06:53:27.309Z,100026.16
2023-03-30T06:54:29.736Z,100028.16
2023-03-30T06:55:33.535Z,100029.39
2023-03-30T06:56:35.897Z,100030.94
2023-03-30T06:57:39.775Z,100023.07
2023-03-30T06:58:41.839Z,100028.62
2023-03-30T06:59:44.518Z,100031.39
2023-03-30T07:00:57.716Z,100039.26
2023-03-30T07:02:14.839Z,100024.62
2023-03-30T07:03:35.401Z,100034.17
2023-03-30T07:04:51.951Z,100026.62
2023-03-30T07:05:59.557Z,100015.52
2023-03-30T07:07:06.516Z,100021.53
2023-03-30T07:08:08.562Z,100020.76
2023-03-30T07:09:13.388Z,100021.22
2023-03-30T07:10:15.763Z,100019.67
2023-03-30T07:11:19.514Z,100019.67
2023-03-30T07:12:21.900Z,100012.12
2023-03-30T07:13:24.296Z,100016.62
2023-03-30T07:14:27.328Z,100024.45
2023-03-30T07:15:30.514Z,100023.70
2023-03-30T07:16:33.248Z,100024.94
2023-03-30T07:17:38.457Z,100021.39
2023-03-30T07:18:41.121Z,100015.84
2023-03-30T07:19:43.528Z,100011.53
2023-03-30T07:20:45.943Z,100018.62
2023-03-30T07:21:50.215Z,100008.75
2023-03-30T07:22:53.374Z,100011.53
2023-03-30T07:23:55.396Z,100013.53
2023-03-30T07:24:59.863Z,100015.53
2023-03-30T07:26:05.558Z,100005.21
2023-03-30T07:27:16.355Z,100017.08
2023-03-30T07:28:19.783Z,100005.98
2023-03-30T07:29:23.374Z,100015.53
2023-03-30T07:30:27.338Z,100023.39
2023-03-30T07:31:31.394Z,100006.75
2023-03-30T07:32:34.097Z,100018.62
2023-03-30T07:33:36.376Z,100004.75
2023-03-30T07:34:39.344Z,100009.53
2023-03-30T07:35:43.209Z,100002.75
2023-03-30T07:36:45.457Z,100009.06
2023-03-30T07:37:50.864Z,100001.52
2023-03-30T07:38:52.040Z,100002.27
2023-03-30T07:39:55.214Z,100005.34
2023-03-30T07:40:57.757Z,99982.23
2023-03-30T07:42:01.612Z,99994.58
2023-03-30T07:43:03.851Z,100002.41
2023-03-30T07:44:06.528Z,99997.17
2023-03-30T07:45:10.701Z,100010.41
2023-03-30T07:46:14.137Z,99998.95
2023-03-30T07:47:19.198Z,100001.41
2023-03-30T07:48:21.376Z,99997.02
2023-03-30T07:49:23.531Z,100003.73
2023-03-30T07:50:25.698Z,99995.80
2023-03-30T07:51:31.295Z,100004.34
2023-03-30T07:52:35.146Z,100003.25
2023-03-30T07:53:38.247Z,100000.45
2023-03-30T07:54:43.185Z,99999.97
2023-03-30T07:55:47.060Z,99996.44
2023-03-30T07:56:50.952Z,100008.45
2023-03-30T07:57:53.668Z,100001.95
2023-03-30T07:58:56.554Z,100001.53
2023-03-30T08:00:01.010Z,99998.80
2023-03-30T08:01:18.075Z,99989.19
2023-03-30T08:02:23.077Z,99995.97
2023-03-30T08:03:26.942Z,99990.67
2023-03-30T08:04:30.071Z,99981.66
2023-03-30T08:05:32.300Z,99986.06
2023-03-30T08:06:37.349Z,99987.92
2023-03-30T08:07:39.355Z,99983.31
2023-03-30T08:08:43.776Z,99975.61
2023-03-30T08:09:46.183Z,99975.29
2023-03-30T08:10:49.562Z,99969.11
2023-03-30T08:11:51.779Z,99968.76
2023-03-30T08:12:53.752Z,99970.95
2023-03-30T08:13:56.539Z,99969.84
2023-03-30T08:14:59.215Z,99960.28
2023-03-30T08:16:01.711Z,99968.69
2023-03-30T08:17:03.794Z,99960.42
2023-03-30T08:18:06.481Z,99954.00
2023-03-30T08:19:08.599Z,99957.05
2023-03-30T08:20:12.325Z,99959.10
2023-03-30T08:21:14.313Z,99954.77
2023-03-30T08:22:16.256Z,99946.84
2023-03-30T08:23:20.107Z,99951.47
2023-03-30T08:24:22.808Z,99949.17
2023-03-30T08:25:25.200Z,99944.62
2023-03-30T08:26:27.657Z,99941.56
2023-03-30T08:27:30.656Z,99943.38
2023-03-30T08:28:32.750Z,99938.27
2023-03-30T08:29:34.997Z,99942.37
2023-03-30T08:30:37.573Z,99939.31
2023-03-30T08:31:39.602Z,99937.52
2023-03-30T08:32:41.810Z,99932.93
2023-03-30T08:33:44.259Z,99947.51
2023-03-30T08:34:46.324Z,99942.44
2023-03-30T08:35:48.589Z,99931.70
2023-03-30T08:36:51.485Z,99932.99
2023-03-30T08:37:53.549Z,99936.56
2023-03-30T08:38:55.560Z,99937.09
2023-03-30T08:39:57.580Z,99935.04
2023-03-30T08:40:59.772Z,99936.33
2023-03-30T08:42:22.999Z,99941.19
2023-03-30T08:43:31.623Z,99943.99
2023-03-30T08:44:37.670Z,99947.33
2023-03-30T08:45:42.464Z,99955.76
2023-03-30T08:46:44.171Z,99952.95
2023-03-30T08:47:48.067Z,99945.27
2023-03-30T08:48:50.232Z,99941.70
2023-03-30T08:51:28.865Z,99948.00
2023-03-30T08:52:30.855Z,99944.52
2023-03-30T08:53:33.736Z,99944.52
2023-03-30T08:54:36.094Z,99945.80
2023-03-30T08:55:53.817Z,99942.73
2023-03-30T08:58:21.609Z,99948.82
2023-03-30T08:59:32.954Z,99942.73
2023-03-30T09:00:57.046Z,99938.13
2023-03-30T09:02:05.360Z,99936.84
2023-03-30T09:04:39.153Z,99941.09
2023-03-30T09:07:14.320Z,99933.69
2023-03-30T09:08:21.196Z,99937.88
2023-03-30T09:09:27.022Z,99935.84
2023-03-30T09:10:31.619Z,99946.56
2023-03-30T09:11:35.292Z,99940.94
2023-03-30T09:14:04.258Z,99943.41
2023-03-30T09:15:33.845Z,99940.91
2023-03-30T09:16:42.431Z,99934.52
2023-03-30T09:18:11.166Z,99937.85
2023-03-30T09:20:36.270Z,99932.66
2023-03-30T09:21:38.859Z,99933.52
2023-03-30T09:22:42.243Z,99936.84
2023-03-30T09:23:44.254Z,99926.12
2023-03-30T09:24:46.295Z,99929.69
2023-03-30T09:25:55.358Z,99927.64
2023-03-30T09:27:07.325Z,99920.50
2023-03-30T09:28:19.418Z,99919.98
2023-03-30T09:29:28.071Z,99926.36
2023-03-30T09:32:13.406Z,99907.34
2023-03-30T09:33:35.846Z,99917.41
2023-03-30T09:36:22.396Z,99911.72
2023-03-30T09:37:24.411Z,99921.75
2023-03-30T09:38:26.418Z,99904.64
2023-03-30T09:39:30.439Z,99910.27
2023-03-30T09:40:42.620Z,99907.20
2023-03-30T09:42:11.053Z,99904.39
2023-03-30T09:43:21.254Z,99910.02
2023-03-30T09:44:37.432Z,99910.02
2023-03-30T09:45:39.524Z,99906.44
2023-03-30T09:46:42.845Z,99898.01
2023-03-30T09:47:45.007Z,99897.24
2023-03-30T09:48:48.703Z,99900.06
2023-03-30T09:49:58.261Z,99894.95
2023-03-30T09:51:00.375Z,99889.85
2023-03-30T09:53:22.934Z,99880.10
2023-03-30T09:54:25.372Z,99883.75
2023-03-30T09:55:32.052Z,99887.32
2023-03-30T09:56:42.352Z,99882.98
2023-03-30T09:57:44.396Z,99882.98
2023-03-30T09:58:46.340Z,99880.17
2023-03-30T09:59:48.363Z,99877.12
2023-03-30T10:01:03.472Z,99871.50
2023-03-30T10:02:19.696Z,99881.98
2023-03-30T10:03:22.437Z,99870.73
2023-03-30T10:04:24.715Z,99874.86
2023-03-30T10:05:27.550Z,99884.57
2023-03-30T10:06:30.906Z,99874.38
2023-03-30T10:07:35.782Z,99875.41
2023-03-30T10:08:51.657Z,99880.78
2023-03-30T10:09:54.041Z,99874.16
2023-03-30T10:10:57.056Z,99871.63
2023-03-30T10:11:59.297Z,99873.42
2023-03-30T10:13:13.952Z,99875.47
2023-03-30T10:14:28.955Z,99870.41
2023-03-30T10:15:32.791Z,99865.30
2023-03-30T10:16:34.992Z,99866.06
2023-03-30T10:17:37.394Z,99870.92
2023-03-30T10:18:42.468Z,99869.39
2023-03-30T10:19:48.651Z,99867.87
2023-03-30T10:23:20.321Z,99873.48
2023-03-30T10:25:34.023Z,99861.15
2023-03-30T10:26:36.962Z,99863.28
2023-03-30T10:27:38.987Z,99858.95
2023-03-30T10:28:43.718Z,99862.80
2023-03-30T10:29:47.640Z,99859.50
2023-03-30T10:32:14.612Z,99860.75
2023-03-30T10:33:16.985Z,99860.07
2023-03-30T10:35:43.853Z,99861.55
2023-03-30T10:36:50.046Z,99851.92
2023-03-30T10:37:52.907Z,99862.14
2023-03-30T10:38:54.915Z,99861.38
2023-03-30T10:39:56.887Z,99864.70
2023-03-30T10:42:22.138Z,99871.30
2023-03-30T10:43:28.464Z,99867.02
2023-03-30T10:44:38.656Z,99868.05
2023-03-30T10:45:46.105Z,99873.97
2023-03-30T10:46:48.578Z,99864.53
2023-03-30T10:49:22.080Z,99862.73
2023-03-30T10:50:28.345Z,99872.45
2023-03-30T10:51:55.452Z,99855.87
2023-03-30T10:53:22.556Z,99864.07
2023-03-30T10:54:37.264Z,99865.62
2023-03-30T10:56:18.232Z,99857.71
2023-03-30T10:57:21.498Z,99865.12
2023-03-30T10:58:36.093Z,99860.53
2023-03-30T10:59:47.943Z,99855.19
2023-03-30T11:00:59.823Z,99862.08
2023-03-30T11:02:23.477Z,99859.05
2023-03-30T11:03:27.183Z,99853.19
2023-03-30T11:04:38.352Z,99850.64
2023-03-30T11:05:43.469Z,99854.48
2023-03-30T11:06:46.552Z,99851.17
2023-03-30T11:08:03.791Z,99852.96
2023-03-30T11:09:06.481Z,99851.72
2023-03-30T11:10:19.338Z,99843.05
2023-03-30T11:11:22.933Z,99845.61
2023-03-30T11:12:26.062Z,99847.40
2023-03-30T11:13:38.516Z,99858.36
2023-03-30T11:14:53.115Z,99848.94
2023-03-30T11:16:17.066Z,99846.39
2023-03-30T11:17:28.674Z,99839.25
2023-03-30T11:18:37.654Z,99836.22
2023-03-30T11:21:07.556Z,99838.99
2023-03-30T11:23:57.544Z,99837.50
2023-03-30T11:25:00.038Z,99837.26
2023-03-30T11:26:14.027Z,99842.36
2023-03-30T11:27:19.417Z,99848.25
2023-03-30T11:28:42.364Z,99836.24
2023-03-30T11:31:20.918Z,99830.89
2023-03-30T11:32:56.543Z,99833.47
2023-03-30T11:35:33.376Z,99819.94
2023-03-30T11:36:39.740Z,99820.47
2023-03-30T11:37:54.529Z,99817.41
2023-03-30T11:39:00.129Z,99823.53
2023-03-30T11:40:30.159Z,99820.47
2023-03-30T11:41:42.794Z,99821.73
2023-03-30T11:42:44.708Z,99822.02
2023-03-30T11:43:46.709Z,99818.20
2023-03-30T11:44:49.023Z,99815.65
2023-03-30T11:46:04.007Z,99818.95
2023-03-30T11:47:31.581Z,99820.73
2023-03-30T11:49:00.186Z,99820.23
2023-03-30T11:50:24.394Z,99820.72
2023-03-30T11:51:45.295Z,99818.43
2023-03-30T11:53:03.750Z,99817.92
2023-03-30T11:54:12.243Z,99821.73
2023-03-30T11:55:35.093Z,99824.29
2023-03-30T11:56:53.326Z,99806.48
2023-03-30T11:58:14.351Z,99819.98
2023-03-30T11:59:43.403Z,99817.43
2023-03-30T12:01:11.009Z,99811.81
2023-03-30T12:03:46.380Z,99812.33
2023-03-30T12:05:04.030Z,99806.22
2023-03-30T12:06:22.346Z,99802.91
2023-03-30T12:07:43.373Z,99805.22
2023-03-30T12:09:07.568Z,99806.23
2023-03-30T12:11:33.880Z,99810.55
2023-03-30T12:12:37.373Z,99810.01
2023-03-30T12:13:50.196Z,99803.41
2023-03-30T12:15:05.383Z,99801.63
2023-03-30T12:16:09.642Z,99803.39
2023-03-30T12:17:18.685Z,99798.04
2023-03-30T12:19:55.560Z,99805.69
2023-03-30T12:22:20.868Z,99800.84
2023-03-30T12:23:35.906Z,99811.23
2023-03-30T12:25:03.256Z,99806.13
2023-03-30T12:26:24.039Z,99807.41
2023-03-30T12:27:27.102Z,99807.91
2023-03-30T12:29:05.025Z,99804.08
2023-03-30T12:30:59.023Z,99811.44
2023-03-30T12:32:05.726Z,99802.02
2023-03-30T12:33:13.561Z,99796.93
2023-03-30T12:34:16.156Z,99800.99
2023-03-30T12:35:57.839Z,99801.27
2023-03-30T12:37:15.625Z,99798.97
2023-03-30T12:39:42.476Z,99789.04
2023-03-30T12:40:55.912Z,99797.41
2023-03-30T12:42:21.833Z,99795.12
2023-03-30T12:43:50.567Z,99794.08
2023-03-30T12:45:17.853Z,99786.96
2023-03-30T12:46:29.480Z,99790.26
2023-03-30T12:47:40.988Z,99787.97
2023-03-30T12:48:56.137Z,99789.23
2023-03-30T12:50:20.598Z,99795.59
2023-03-30T12:51:30.348Z,99787.97
2023-03-30T12:52:48.911Z,99789.23
2023-03-30T12:56:05.557Z,99794.11
2023-03-30T12:57:31.594Z,99790.52
2023-03-30T12:59:13.168Z,99791.79
2023-03-30T13:02:42.451Z,99786.72
2023-03-30T13:03:52.729Z,99787.20
2023-03-30T13:04:55.209Z,99786.94
2023-03-30T13:05:58.402Z,99786.94
2023-03-30T13:07:18.198Z,99787.44
2023-03-30T13:08:38.833Z,99782.34
2023-03-30T13:09:58.326Z,99783.61
2023-03-30T13:11:15.551Z,99784.88
2023-03-30T13:12:36.538Z,99779.28
2023-03-30T13:13:56.054Z,99784.11
2023-03-30T13:16:13.981Z,99779.58
2023-03-30T13:17:16.958Z,99780.28
2023-03-30T13:18:30.647Z,99776.72
2023-03-30T13:19:36.321Z,99777.48
2023-03-30T13:20:58.153Z,99778.75
2023-03-30T13:22:14.260Z,99770.36
2023-03-30T13:23:22.974Z,99775.19
2023-03-30T13:24:31.604Z,99777.98
2023-03-30T13:25:42.427Z,99776.95
2023-03-30T13:26:47.281Z,99768.56
2023-03-30T13:27:52.271Z,99768.33
2023-03-30T13:29:06.563Z,99769.89
2023-03-30T13:30:11.820Z,99767.13
2023-03-30T13:31:38.594Z,99769.91
2023-03-30T13:32:44.790Z,99769.67
2023-03-30T13:33:50.030Z,99765.88
2023-03-30T13:35:06.971Z,99772.50
2023-03-30T13:36:14.942Z,99772.50
2023-03-30T13:37:40.501Z,99768.44
2023-03-30T13:39:01.530Z,99762.84
2023-03-30T13:40:27.647Z,99769.70
2023-03-30T13:43:25.180Z,99759.53
2023-03-30T13:44:43.117Z,99765.11
2023-03-30T13:46:13.718Z,99759.52
2023-03-30T13:47:16.753Z,99755.19
2023-03-30T13:48:22.718Z,99753.66
2023-03-30T13:49:31.488Z,99754.92
2023-03-30T13:50:33.905Z,99756.96
2023-03-30T13:51:38.017Z,99752.63
2023-03-30T13:52:43.586Z,99753.13
2023-03-30T13:55:04.266Z,99755.21
2023-03-30T13:56:10.354Z,99754.66
2023-03-30T13:57:23.022Z,99749.07
2023-03-30T13:58:31.650Z,99750.34
2023-03-30T13:59:35.229Z,99753.63
2023-03-30T14:00:50.140Z,99752.88
2023-03-30T14:01:53.929Z,99744.48
2023-03-30T14:02:56.794Z,99755.67
2023-03-30T14:03:59.550Z,99749.31
2023-03-30T14:05:18.024Z,99748.58
2023-03-30T14:06:23.205Z,99753.41
2023-03-30T14:07:25.191Z,99741.95
2023-03-30T14:08:28.361Z,99741.19
2023-03-30T14:09:30.483Z,99739.16
2023-03-30T14:10:32.437Z,99740.69
2023-03-30T14:11:49.579Z,99750.34
2023-03-30T14:12:57.249Z,99741.19
2023-03-30T14:14:01.343Z,99740.42
2023-03-30T14:16:37.187Z,99740.44
2023-03-30T14:17:41.934Z,99740.42
2023-03-30T14:18:45.709Z,99730.50
2023-03-30T14:20:08.525Z,99731.27
2023-03-30T14:21:14.141Z,99740.42
2023-03-30T14:22:19.302Z,99736.09
2023-03-30T14:23:38.412Z,99734.56
2023-03-30T14:24:43.380Z,99737.86
2023-03-30T14:25:45.475Z,99737.86
2023-03-30T14:26:47.536Z,99729.47
2023-03-30T14:27:49.696Z,99737.09
2023-03-30T14:30:26.880Z,99735.09
2023-03-30T14:31:42.847Z,99727.95
2023-03-30T14:33:09.420Z,99728.71
2023-03-30T14:34:25.796Z,99729.47
2023-03-30T14:35:29.949Z,99721.09
2023-03-30T14:36:32.502Z,99724.65
2023-03-30T14:37:35.560Z,99721.09
2023-03-30T14:38:41.855Z,99722.62
2023-03-30T14:39:58.978Z,99718.29
2023-03-30T14:41:10.588Z,99725.15
2023-03-30T14:42:18.392Z,99720.82